Time;durP1;ratioP1;P1;durP2;ratioP2;P2;SDS_P1;SDS_P2;PMS_P1;PMS_P2;Temp;Humidity;BMP_temperature;BMP_pressure;BME280_temperature;BME280_humidity;BME280_pressure;Samples;Min_cycle;Max_cycle;Signal;HPM_P1;HPM_P2
2023/03/26 00:01:07;;;;;;;5.47;2.00;;;;;;;6.82;100.00;99467.28;5049759;28;20261;-62
2023/03/26 00:03:34;;;;;;;7.93;2.37;;;;;;;6.73;100.00;99467.75;5071445;28;20249;-63
2023/03/26 00:06:11;;;;;;;7.90;2.03;;;;;;;6.71;100.00;99470.38;5059234;28;20259;-61
2023/03/26 00:08:38;;;;;;;6.10;2.13;;;;;;;6.60;100.00;99476.00;5077776;28;20233;-61
2023/03/26 00:11:06;;;;;;;6.80;2.13;;;;;;;6.62;100.00;99473.34;5057267;28;20777;-62
2023/03/26 00:13:33;;;;;;;9.10;2.43;;;;;;;6.64;100.00;99471.56;5067619;28;20219;-62
2023/03/26 00:16:00;;;;;;;8.17;2.00;;;;;;;6.54;100.00;99465.25;5049739;28;20236;-61
2023/03/26 00:18:33;;;;;;;6.43;2.20;;;;;;;6.55;100.00;99472.84;5074546;28;20169;-61
2023/03/26 00:21:02;;;;;;;5.70;2.07;;;;;;;6.46;100.00;99466.44;5058941;28;20647;-61
2023/03/26 00:23:28;;;;;;;5.33;2.00;;;;;;;6.33;100.00;99478.13;5066271;28;20178;-60
2023/03/26 00:25:54;;;;;;;5.93;2.20;;;;;;;6.35;100.00;99476.34;5061318;28;20184;-61
2023/03/26 00:28:21;;;;;;;5.73;1.90;;;;;;;6.46;100.00;99468.16;5069393;28;20209;-61
2023/03/26 00:30:55;;;;;;;7.07;2.00;;;;;;;6.43;100.00;99466.56;5027635;28;20235;-60
2023/03/26 00:33:21;;;;;;;8.70;2.50;;;;;;;6.39;100.00;99470.19;5052260;28;20190;-60
2023/03/26 00:35:51;;;;;;;8.60;2.10;;;;;;;6.35;100.00;99472.94;5062925;28;20176;-61
2023/03/26 00:38:16;;;;;;;10.67;2.20;;;;;;;6.39;100.00;99466.81;5060063;28;20624;-60
2023/03/26 00:40:42;;;;;;;10.73;2.43;;;;;;;6.38;100.00;99468.53;5054825;28;20233;-61
2023/03/26 00:43:17;;;;;;;8.30;2.80;;;;;;;6.34;100.00;99474.69;5068039;28;20201;-59
2023/03/26 00:45:43;;;;;;;6.93;3.17;;;;;;;6.38;100.00;99467.72;5062608;28;20184;-60
2023/03/26 00:48:08;;;;;;;7.50;2.67;;;;;;;6.40;100.00;99469.28;5057640;28;20186;-64
2023/03/26 00:50:33;;;;;;;12.30;2.97;;;;;;;6.28;100.00;99467.31;5052373;28;20253;-62
2023/03/26 00:52:58;;;;;;;11.70;3.17;;;;;;;6.33;100.00;99462.00;5059903;28;20609;-61
2023/03/26 00:55:24;;;;;;;9.80;3.00;;;;;;;6.27;100.00;99463.91;5064055;28;20207;-61
2023/03/26 00:57:49;;;;;;;9.40;2.40;;;;;;;6.29;100.00;99456.19;5063198;28;20176;-62
2023/03/26 01:00:17;;;;;;;8.70;2.43;;;;;;;6.30;100.00;99456.13;5052755;28;20269;-61
2023/03/26 01:02:43;;;;;;;7.97;2.03;;;;;;;6.29;100.00;99453.66;5073941;28;20301;-62
2023/03/26 01:05:34;;;;;;;13.23;2.50;;;;;;;6.15;100.00;99446.59;5064718;28;20184;-63
2023/03/26 01:08:19;;;;;;;5.63;2.17;;;;;;;6.14;100.00;99445.78;5055623;28;20228;-63
2023/03/26 01:10:49;;;;;;;9.87;3.03;;;;;;;6.25;100.00;99452.13;5054103;28;20244;-61
2023/03/26 01:13:24;;;;;;;7.37;2.83;;;;;;;6.16;100.00;99440.59;5074509;28;20200;-62
2023/03/26 01:15:50;;;;;;;7.43;2.43;;;;;;;6.13;100.00;99443.31;5056644;28;20195;-62
2023/03/26 01:18:25;;;;;;;6.03;2.30;;;;;;;6.11;100.00;99437.44;5071186;28;20562;-63
2023/03/26 01:21:04;;;;;;;8.93;2.47;;;;;;;6.14;100.00;99432.22;5053981;28;20233;-61
2023/03/26 01:23:39;;;;;;;11.13;2.60;;;;;;;6.10;100.00;99426.41;5078143;28;20189;-60
2023/03/26 01:26:16;;;;;;;11.80;3.00;;;;;;;6.17;100.00;99419.28;5059915;28;20538;-61
2023/03/26 01:28:41;;;;;;;6.87;2.67;;;;;;;6.17;100.00;99418.47;5073092;28;20273;-59
2023/03/26 01:31:35;;;;;;;9.30;3.00;;;;;;;6.13;100.00;99417.78;5073475;28;20317;-60
2023/03/26 01:34:29;;;;;;;6.63;3.13;;;;;;;6.21;100.00;99412.31;5073057;28;20182;-60
2023/03/26 01:37:13;;;;;;;12.03;2.80;;;;;;;6.19;100.00;99407.28;5073203;28;20193;-64
2023/03/26 01:39:55;;;;;;;9.37;2.77;;;;;;;6.28;100.00;99398.34;5074952;28;20191;-61
2023/03/26 01:42:37;;;;;;;10.93;2.50;;;;;;;6.24;100.00;99399.38;5067037;28;20311;-61
2023/03/26 01:45:15;;;;;;;11.03;3.57;;;;;;;6.17;100.00;99406.50;5073115;28;20188;-60
2023/03/26 01:47:42;;;;;;;7.73;2.50;;;;;;;6.36;100.00;99395.41;5074689;28;20191;-60
2023/03/26 01:50:08;;;;;;;14.03;2.97;;;;;;;6.41;100.00;99396.88;5063618;28;20604;-61
2023/03/26 01:52:34;;;;;;;7.97;2.33;;;;;;;6.42;100.00;99393.38;5088352;28;20262;-61
2023/03/26 01:54:59;;;;;;;6.30;2.40;;;;;;;6.42;100.00;99384.91;5074492;28;20266;-61
2023/03/26 01:58:02;;;;;;;10.43;3.63;;;;;;;6.45;100.00;99379.66;5072823;28;20206;-61
2023/03/26 02:00:32;;;;;;;10.13;3.30;;;;;;;6.67;100.00;99373.47;5067100;28;20289;-60
2023/03/26 02:03:16;;;;;;;12.20;3.17;;;;;;;6.75;100.00;99376.47;5072510;28;20296;-59
2023/03/26 02:05:55;;;;;;;6.93;2.27;;;;;;;6.74;100.00;99374.81;5072747;28;20279;-60
2023/03/26 02:08:23;;;;;;;7.33;2.70;;;;;;;6.76;100.00;99367.88;5072477;28;20313;-60
2023/03/26 02:10:56;;;;;;;8.60;2.50;;;;;;;6.72;100.00;99368.94;5061992;28;20273;-62
2023/03/26 02:13:22;;;;;;;8.87;2.30;;;;;;;6.85;100.00;99358.94;5063921;28;20279;-60
2023/03/26 02:15:59;;;;;;;9.60;2.57;;;;;;;6.86;100.00;99356.31;5059411;28;20177;-60
2023/03/26 02:18:34;;;;;;;8.70;2.40;;;;;;;6.92;100.00;99343.22;5073616;28;20527;-60
2023/03/26 02:21:00;;;;;;;9.27;2.23;;;;;;;6.78;100.00;99346.47;5070837;28;20211;-60
2023/03/26 02:23:28;;;;;;;5.83;2.10;;;;;;;6.77;100.00;99344.81;5081461;28;20261;-60
2023/03/26 02:25:54;;;;;;;8.53;1.87;;;;;;;6.84;100.00;99347.06;5073698;28;20181;-62
2023/03/26 02:28:19;;;;;;;7.37;2.27;;;;;;;6.76;100.00;99344.88;5073835;28;20705;-61
2023/03/26 02:30:46;;;;;;;9.77;2.50;;;;;;;6.97;100.00;99345.53;5068638;28;20228;-60
2023/03/26 02:33:14;;;;;;;7.37;2.13;;;;;;;6.90;100.00;99345.00;5083017;28;20169;-61
2023/03/26 02:35:44;;;;;;;9.20;2.43;;;;;;;6.97;100.00;99339.59;5060611;28;20177;-61
2023/03/26 02:38:13;;;;;;;9.30;2.27;;;;;;;7.05;100.00;99334.91;5072036;28;20206;-61
2023/03/26 02:40:38;;;;;;;8.90;2.47;;;;;;;7.07;100.00;99336.47;5065003;28;20239;-61
2023/03/26 02:43:03;;;;;;;10.57;2.57;;;;;;;7.12;100.00;99331.13;5083680;28;20204;-64
2023/03/26 02:45:29;;;;;;;8.00;2.17;;;;;;;7.16;100.00;99335.16;5073524;28;20191;-62
2023/03/26 02:47:54;;;;;;;6.43;2.57;;;;;;;7.09;100.00;99328.72;5073105;28;20216;-61
2023/03/26 02:50:19;;;;;;;8.60;2.70;;;;;;;7.09;100.00;99328.72;5065507;28;20627;-61
2023/03/26 02:52:47;;;;;;;10.57;2.23;;;;;;;7.11;100.00;99321.78;5071241;28;20258;-61
2023/03/26 02:55:13;;;;;;;9.53;2.20;;;;;;;7.23;100.00;99322.88;5072067;28;20181;-61
2023/03/26 02:57:38;;;;;;;9.23;2.60;;;;;;;7.22;100.00;99319.50;5073039;28;20177;-59
2023/03/26 03:00:13;;;;;;;12.27;2.93;;;;;;;7.26;100.00;99308.19;5065893;28;20200;-64
2023/03/26 03:02:38;;;;;;;7.60;3.37;;;;;;;7.27;100.00;99297.03;5060845;28;20220;-61
2023/03/26 03:05:04;;;;;;;9.10;2.57;;;;;;;7.37;100.00;99296.56;5073158;28;20184;-60
2023/03/26 03:07:30;;;;;;;10.90;2.60;;;;;;;7.34;100.00;99284.72;5071463;28;20167;-59
2023/03/26 03:10:01;;;;;;;11.40;3.17;;;;;;;7.40;100.00;99284.41;5073067;28;20258;-60
2023/03/26 03:12:26;;;;;;;9.53;2.87;;;;;;;7.39;100.00;99298.13;5064592;28;20225;-59
2023/03/26 03:14:51;;;;;;;8.60;2.37;;;;;;;7.40;100.00;99281.84;5062445;28;20192;-59
2023/03/26 03:17:19;;;;;;;11.07;2.67;;;;;;;7.43;100.00;99275.75;5074069;28;20231;-59
2023/03/26 03:19:44;;;;;;;9.27;2.80;;;;;;;7.43;100.00;99271.47;5071274;28;20226;-60
2023/03/26 03:22:10;;;;;;;7.03;2.53;;;;;;;7.42;100.00;99274.91;5077369;28;20224;-67
2023/03/26 03:24:35;;;;;;;9.57;2.43;;;;;;;7.40;100.00;99271.59;5070908;28;20208;-60
2023/03/26 03:27:00;;;;;;;9.17;3.10;;;;;;;7.41;100.00;99264.78;5072335;28;20650;-60
2023/03/26 03:29:27;;;;;;;7.10;2.50;;;;;;;7.41;100.00;99260.47;5072543;28;20177;-60
2023/03/26 03:31:52;;;;;;;7.43;2.40;;;;;;;7.43;100.00;99257.84;5040625;28;20259;-60
2023/03/26 03:34:17;;;;;;;6.50;2.70;;;;;;;7.46;100.00;99262.78;5071907;28;20201;-60
2023/03/26 03:36:47;;;;;;;9.60;3.00;;;;;;;7.32;100.00;99260.97;5072409;28;20218;-61
2023/03/26 03:39:12;;;;;;;7.30;2.73;;;;;;;7.45;100.00;99257.75;5071016;28;20181;-60
2023/03/26 03:41:37;;;;;;;9.03;3.20;;;;;;;7.37;100.00;99250.50;5074085;28;20235;-61
2023/03/26 03:44:03;;;;;;;9.70;2.67;;;;;;;7.47;100.00;99248.25;5074961;28;20219;-60
2023/03/26 03:46:28;;;;;;;8.60;2.53;;;;;;;7.45;100.00;99250.88;5070512;28;20551;-60
2023/03/26 03:48:53;;;;;;;7.23;2.50;;;;;;;7.46;100.00;99250.00;5071719;28;20177;-60
2023/03/26 03:51:19;;;;;;;17.57;2.97;;;;;;;7.43;100.00;99250.16;5071452;28;20266;-63
2023/03/26 03:53:45;;;;;;;10.30;3.00;;;;;;;7.43;100.00;99240.75;5077390;28;20168;-60
2023/03/26 03:56:13;;;;;;;10.73;3.37;;;;;;;7.47;100.00;99238.00;5071757;28;20624;-61
2023/03/26 03:58:39;;;;;;;9.03;2.73;;;;;;;7.51;100.00;99242.88;5070385;28;20175;-65
2023/03/26 04:01:05;;;;;;;8.27;2.87;;;;;;;7.45;100.00;99232.16;5069663;28;20281;-61
2023/03/26 04:03:37;;;;;;;9.97;2.77;;;;;;;7.50;100.00;99223.31;5078916;28;20188;-61
2023/03/26 04:06:05;;;;;;;8.60;2.73;;;;;;;7.46;100.00;99221.03;5070345;28;20203;-60
2023/03/26 04:08:31;;;;;;;10.07;3.00;;;;;;;7.51;100.00;99214.72;5060189;28;20236;-60
2023/03/26 04:10:56;;;;;;;13.13;3.27;;;;;;;7.49;100.00;99208.88;5048189;28;20594;-59
2023/03/26 04:13:22;;;;;;;8.40;3.37;;;;;;;7.42;100.00;99205.81;5068212;28;20177;-60
2023/03/26 04:15:47;;;;;;;11.30;2.90;;;;;;;7.43;100.00;99196.44;5068963;28;20185;-60
2023/03/26 04:18:13;;;;;;;10.83;2.47;;;;;;;7.18;100.00;99199.50;5058167;28;20338;-60
2023/03/26 04:20:46;;;;;;;11.60;3.30;;;;;;;7.15;100.00;99200.50;5065775;28;20231;-60
2023/03/26 04:23:13;;;;;;;13.37;3.03;;;;;;;7.08;100.00;99188.97;5069829;28;20235;-60
2023/03/26 04:25:41;;;;;;;8.67;2.80;;;;;;;7.27;100.00;99191.34;5052851;28;20564;-61
2023/03/26 04:28:07;;;;;;;9.73;2.80;;;;;;;7.33;100.00;99173.09;5057768;28;20216;-60
2023/03/26 04:30:34;;;;;;;11.07;3.00;;;;;;;7.26;100.00;99167.47;5062489;28;20228;-61
2023/03/26 04:33:05;;;;;;;8.60;3.07;;;;;;;6.94;100.00;99167.50;5069814;28;20173;-60
2023/03/26 04:35:33;;;;;;;11.03;3.43;;;;;;;6.78;100.00;99159.88;5069952;28;20192;-60
2023/03/26 04:38:00;;;;;;;7.83;2.50;;;;;;;6.72;100.00;99160.22;5071517;28;20183;-61
2023/03/26 04:40:29;;;;;;;7.40;2.90;;;;;;;6.57;100.00;99173.78;5062171;28;20577;-61
2023/03/26 04:42:57;;;;;;;10.50;2.83;;;;;;;6.47;100.00;99176.00;5069675;28;20200;-60
2023/03/26 04:45:22;;;;;;;11.03;3.27;;;;;;;6.57;100.00;99161.00;5069984;28;20239;-60
2023/03/26 04:47:49;;;;;;;13.67;3.53;;;;;;;6.55;100.00;99153.44;5071351;28;20192;-60
2023/03/26 04:50:14;;;;;;;9.07;2.80;;;;;;;6.64;100.00;99149.56;5062424;28;20188;-61
2023/03/26 04:52:40;;;;;;;7.37;2.70;;;;;;;6.65;100.00;99143.56;5069343;28;20539;-61
2023/03/26 04:55:39;;;;;;;13.30;3.13;;;;;;;6.41;100.00;99143.09;5071072;28;20223;-61
2023/03/26 04:58:05;;;;;;;13.40;2.87;;;;;;;6.35;100.00;99143.44;4986951;28;20196;-60
2023/03/26 05:00:31;;;;;;;10.63;2.97;;;;;;;6.52;100.00;99128.03;4981038;28;20607;-61
2023/03/26 05:03:00;;;;;;;13.23;3.10;;;;;;;6.55;100.00;99127.88;4992579;28;20206;-61
2023/03/26 05:05:27;;;;;;;14.47;3.13;;;;;;;6.49;100.00;99122.25;4977211;28;20289;-61
2023/03/26 05:07:53;;;;;;;15.17;3.57;;;;;;;6.44;100.00;99105.47;4992978;28;20195;-61
2023/03/26 05:10:20;;;;;;;11.57;3.40;;;;;;;6.43;100.00;99106.34;4983855;28;20198;-61
2023/03/26 05:12:46;;;;;;;12.83;2.73;;;;;;;6.50;100.00;99094.09;4991934;28;20210;-61
2023/03/26 05:15:13;;;;;;;13.13;3.40;;;;;;;6.45;100.00;99091.78;4993800;28;20339;-62
2023/03/26 05:17:40;;;;;;;8.43;2.73;;;;;;;6.45;100.00;99085.88;4973771;28;20183;-60
2023/03/26 05:20:15;;;;;;;14.37;3.43;;;;;;;6.34;100.00;99075.38;4975783;28;20194;-60
2023/03/26 05:22:41;;;;;;;12.10;3.37;;;;;;;6.29;100.00;99078.19;4976376;28;20768;-60
2023/03/26 05:25:07;;;;;;;13.00;3.27;;;;;;;6.25;100.00;99066.47;4976844;28;20710;-67
2023/03/26 05:27:32;;;;;;;13.73;3.83;;;;;;;6.34;100.00;99078.75;4991825;28;20531;-60
2023/03/26 05:30:01;;;;;;;14.80;3.47;;;;;;;6.37;100.00;99085.44;4993216;28;20206;-64
2023/03/26 05:32:26;;;;;;;10.43;3.03;;;;;;;6.39;100.00;99084.44;4981783;28;20219;-60
2023/03/26 05:34:51;;;;;;;19.27;3.13;;;;;;;6.28;100.00;99091.84;5035131;28;20201;-65
2023/03/26 05:37:18;;;;;;;8.87;3.17;;;;;;;6.43;100.00;99090.22;5054718;28;20555;-61
2023/03/26 05:39:44;;;;;;;10.70;3.07;;;;;;;6.51;100.00;99085.53;5053022;28;20185;-65
2023/03/26 05:42:10;;;;;;;13.60;3.20;;;;;;;6.58;100.00;99080.91;5054881;28;20290;-60
2023/03/26 05:44:35;;;;;;;12.60;2.90;;;;;;;6.58;100.00;99076.59;5066944;28;20180;-61
2023/03/26 05:47:01;;;;;;;12.60;3.90;;;;;;;6.58;100.00;99060.47;5074465;28;20663;-60
2023/03/26 05:49:26;;;;;;;11.33;3.23;;;;;;;6.55;100.00;99058.91;5074574;28;20230;-60
2023/03/26 05:51:51;;;;;;;12.60;3.50;;;;;;;6.54;100.00;99064.09;5078635;28;20261;-61
2023/03/26 05:54:16;;;;;;;11.93;3.33;;;;;;;6.36;100.00;99051.38;5075312;28;20200;-62
2023/03/26 05:56:42;;;;;;;13.10;3.23;;;;;;;6.29;100.00;99043.25;5074128;28;20173;-61
2023/03/26 05:59:07;;;;;;;14.53;3.40;;;;;;;6.39;100.00;99041.03;5074420;28;20559;-62
2023/03/26 06:01:32;;;;;;;17.20;4.30;;;;;;;6.39;100.00;99030.00;5075659;28;20263;-62
2023/03/26 06:03:58;;;;;;;10.90;2.97;;;;;;;6.38;100.00;99029.16;5077715;28;20181;-61
2023/03/26 06:06:23;;;;;;;10.33;2.60;;;;;;;6.46;100.00;99028.72;5073959;28;20340;-61
2023/03/26 06:08:50;;;;;;;8.47;2.93;;;;;;;6.52;100.00;99023.28;5074084;28;20225;-64
2023/03/26 06:11:17;;;;;;;14.27;3.93;;;;;;;6.50;100.00;99022.56;5064516;28;20227;-61
2023/03/26 06:13:43;;;;;;;13.50;3.13;;;;;;;6.40;100.00;99023.94;5071775;28;20188;-65
2023/03/26 06:16:10;;;;;;;13.07;3.27;;;;;;;6.37;100.00;99009.63;5059227;28;20177;-62
2023/03/26 06:18:36;;;;;;;11.23;3.07;;;;;;;6.44;100.00;99002.47;5072430;28;20185;-66
2023/03/26 06:21:03;;;;;;;10.03;2.70;;;;;;;6.45;100.00;99007.47;5050132;28;20728;-61
2023/03/26 06:23:28;;;;;;;12.53;2.97;;;;;;;6.55;100.00;99001.84;5065149;28;20208;-68
2023/03/26 06:25:54;;;;;;;11.73;3.10;;;;;;;6.41;100.00;98995.78;5073895;28;20183;-63
2023/03/26 06:28:19;;;;;;;11.13;3.23;;;;;;;6.33;100.00;98997.94;5073808;28;20185;-65
2023/03/26 06:30:44;;;;;;;9.77;2.73;;;;;;;6.54;100.00;99002.78;5068049;28;20251;-62
2023/03/26 06:33:10;;;;;;;8.17;2.93;;;;;;;6.60;100.00;98999.88;5081526;28;20184;-61
2023/03/26 06:35:35;;;;;;;12.50;2.80;;;;;;;6.63;100.00;98997.94;5054261;28;20268;-61
2023/03/26 06:38:01;;;;;;;16.00;3.57;;;;;;;6.71;100.00;98997.53;5074142;28;20584;-61
2023/03/26 06:40:26;;;;;;;9.23;3.43;;;;;;;6.61;100.00;98994.69;5065005;28;20224;-61
2023/03/26 06:42:52;;;;;;;11.30;3.30;;;;;;;6.66;100.00;98994.44;5071771;28;20192;-62
2023/03/26 06:45:17;;;;;;;13.03;3.37;;;;;;;6.56;100.00;98994.13;5070752;28;20231;-61
2023/03/26 06:47:42;;;;;;;9.10;2.60;;;;;;;6.58;100.00;98983.81;5072490;28;20632;-61
2023/03/26 06:50:10;;;;;;;16.03;3.53;;;;;;;6.52;100.00;98986.69;5074036;28;20706;-61
2023/03/26 06:52:36;;;;;;;11.23;3.13;;;;;;;6.60;100.00;98984.56;5078356;28;20224;-59
2023/03/26 06:55:01;;;;;;;8.33;2.93;;;;;;;6.50;100.00;98973.19;5073043;28;20267;-60
2023/03/26 06:57:26;;;;;;;12.70;3.93;;;;;;;6.53;100.00;98973.03;5073056;28;20185;-60
2023/03/26 06:59:52;;;;;;;11.10;3.67;;;;;;;6.65;100.00;98967.22;5071872;28;20475;-61
2023/03/26 07:02:17;;;;;;;13.43;3.40;;;;;;;6.67;100.00;98959.47;5053102;28;20239;-59
2023/03/26 07:04:42;;;;;;;15.00;3.00;;;;;;;6.73;100.00;98964.22;5072703;28;20186;-60
2023/03/26 07:07:07;;;;;;;6.77;3.63;;;;;;;6.82;100.00;98961.13;5071535;28;20176;-61
2023/03/26 07:09:33;;;;;;;13.97;3.73;;;;;;;6.73;100.00;98957.38;5071615;28;20233;-60
2023/03/26 07:11:58;;;;;;;11.80;3.33;;;;;;;6.65;100.00;98949.34;5076695;28;20247;-69
2023/03/26 07:14:26;;;;;;;11.97;3.40;;;;;;;6.66;100.00;98943.31;5068162;28;20527;-61
2023/03/26 07:16:52;;;;;;;12.57;3.40;;;;;;;6.68;100.00;98938.94;5056680;28;20219;-60
2023/03/26 07:19:17;;;;;;;13.70;3.43;;;;;;;6.81;100.00;98935.66;5074219;28;20234;-61
2023/03/26 07:21:42;;;;;;;11.63;3.23;;;;;;;6.79;100.00;98934.00;5063767;28;20232;-61
2023/03/26 07:24:12;;;;;;;13.23;2.93;;;;;;;6.87;100.00;98925.94;5073713;28;20181;-60
2023/03/26 07:26:43;;;;;;;8.50;2.87;;;;;;;6.83;100.00;98921.06;5070955;28;20197;-60
2023/03/26 07:29:20;;;;;;;13.90;3.07;;;;;;;6.74;100.00;98918.13;5059533;28;20188;-62
2023/03/26 07:32:27;;;;;;;9.67;3.23;;;;;;;6.72;100.00;98912.31;5036164;28;20227;-60
2023/03/26 07:34:55;;;;;;;11.80;3.70;;;;;;;6.69;100.00;98906.53;5062112;28;20184;-60
2023/03/26 07:37:41;;;;;;;7.90;2.67;;;;;;;6.68;100.00;98898.03;5072276;28;20188;-60
2023/03/26 07:40:50;;;;;;;13.70;4.90;;;;;;;6.75;100.00;98899.34;5041400;28;20284;-60
2023/03/26 07:43:32;;;;;;;14.27;3.43;;;;;;;6.81;100.00;98889.66;5026162;28;20659;-61
2023/03/26 07:45:58;;;;;;;10.57;3.13;;;;;;;6.69;100.00;98889.47;5071119;28;20266;-61
2023/03/26 07:48:39;;;;;;;11.63;3.30;;;;;;;6.66;100.00;98888.81;5071823;28;20266;-61
2023/03/26 07:51:05;;;;;;;11.90;3.77;;;;;;;6.76;100.00;98884.81;5063129;28;20223;-62
2023/03/26 07:53:31;;;;;;;13.83;3.40;;;;;;;6.75;100.00;98884.00;5070278;28;20180;-61
2023/03/26 07:56:14;;;;;;;13.03;3.37;;;;;;;6.61;100.00;98886.53;5072056;28;20657;-60
2023/03/26 07:59:01;;;;;;;13.97;3.80;;;;;;;6.58;100.00;98879.03;5065617;28;20174;-61
2023/03/26 08:01:35;;;;;;;12.80;3.70;;;;;;;6.64;100.00;98881.25;5067301;28;20607;-61
2023/03/26 08:04:22;;;;;;;16.67;4.27;;;;;;;6.58;100.00;98889.25;5066715;28;20207;-62
2023/03/26 08:07:06;;;;;;;10.20;3.60;;;;;;;6.59;100.00;98886.63;5070453;28;20506;-62
2023/03/26 08:09:43;;;;;;;10.27;3.80;;;;;;;6.68;100.00;98887.00;5065835;28;20228;-61
2023/03/26 08:12:15;;;;;;;10.70;3.67;;;;;;;6.82;100.00;98884.44;5062185;28;20238;-61
2023/03/26 08:14:51;;;;;;;10.80;3.67;;;;;;;6.92;100.00;98882.19;5062087;28;20169;-62
2023/03/26 08:17:29;;;;;;;10.40;3.73;;;;;;;6.90;100.00;98879.72;5066404;28;20208;-60
2023/03/26 08:20:07;;;;;;;12.10;4.00;;;;;;;6.91;100.00;98878.81;5071681;28;20184;-61
2023/03/26 08:22:37;;;;;;;16.87;4.83;;;;;;;6.98;100.00;98888.69;5039001;28;20589;-61
2023/03/26 08:25:12;;;;;;;12.20;3.77;;;;;;;6.82;100.00;98886.19;5064725;28;20177;-61
2023/03/26 08:28:08;;;;;;;8.00;3.37;;;;;;;6.97;100.00;98881.91;5071169;28;20176;-62
2023/03/26 08:30:34;;;;;;;10.23;3.40;;;;;;;6.96;100.00;98881.09;5062373;28;20711;-61
2023/03/26 08:33:11;;;;;;;13.23;4.40;;;;;;;6.78;100.00;98880.44;5082833;28;20189;-61
2023/03/26 08:35:41;;;;;;;12.57;4.17;;;;;;;6.59;100.00;98875.59;5083098;28;20191;-63
2023/03/26 08:38:13;;;;;;;9.00;3.60;;;;;;;6.64;100.00;98868.47;5065804;28;20176;-62
2023/03/26 08:41:03;;;;;;;10.57;3.80;;;;;;;6.55;100.00;98867.28;5065657;28;20235;-61
2023/03/26 08:43:37;;;;;;;7.93;3.43;;;;;;;6.63;100.00;98862.53;5078473;28;20211;-62
2023/03/26 08:46:29;;;;;;;8.57;3.67;;;;;;;6.70;100.00;98854.50;5071389;28;20187;-63
2023/03/26 08:49:12;;;;;;;7.37;3.47;;;;;;;6.67;100.00;98844.47;5070142;28;20191;-64
2023/03/26 08:52:07;;;;;;;10.53;3.50;;;;;;;6.88;100.00;98837.25;5069458;28;20219;-62
2023/03/26 08:55:05;;;;;;;9.90;3.90;;;;;;;6.85;100.00;98834.91;5071968;28;20636;-62
2023/03/26 08:57:49;;;;;;;8.67;4.07;;;;;;;7.24;100.00;98833.41;5071276;28;20177;-63
2023/03/26 09:00:36;;;;;;;10.37;4.73;;;;;;;7.21;100.00;98836.97;5072710;28;20650;-64
2023/03/26 09:03:32;;;;;;;7.63;4.23;;;;;;;7.16;100.00;98846.66;5075312;28;20336;-63
2023/03/26 09:06:34;;;;;;;9.57;4.30;;;;;;;7.17;100.00;98843.19;5071033;28;20252;-63
2023/03/26 09:09:21;;;;;;;10.27;4.07;;;;;;;7.11;100.00;98833.34;5070903;28;20306;-62
2023/03/26 09:12:24;;;;;;;6.77;3.63;;;;;;;7.14;100.00;98811.88;5073992;28;20228;-62
2023/03/26 09:15:10;;;;;;;9.37;4.03;;;;;;;7.33;100.00;98821.78;5051504;28;20174;-65
2023/03/26 09:18:08;;;;;;;16.33;4.03;;;;;;;7.74;100.00;98806.41;5067929;28;20199;-63
2023/03/26 09:20:57;;;;;;;9.10;3.20;;;;;;;7.92;100.00;98811.28;5061863;28;20223;-62
2023/03/26 09:23:51;;;;;;;8.63;3.00;;;;;;;7.60;100.00;98801.34;5079458;28;20201;-61
2023/03/26 09:26:27;;;;;;;10.43;2.97;;;;;;;7.29;100.00;98780.22;5076481;28;20177;-61
2023/03/26 09:29:07;;;;;;;5.30;2.60;;;;;;;7.74;100.00;98785.13;5069600;28;20180;-61
2023/03/26 09:31:56;;;;;;;7.00;2.67;;;;;;;8.13;100.00;98785.19;5062608;28;20304;-62
2023/03/26 09:34:40;;;;;;;10.70;3.00;;;;;;;8.13;100.00;98786.00;5062330;28;20179;-62
2023/03/26 09:37:32;;;;;;;7.23;2.50;;;;;;;7.86;100.00;98793.75;5069541;28;20188;-61
2023/03/26 09:40:19;;;;;;;8.90;2.47;;;;;;;7.66;100.00;98790.72;5059555;28;20189;-61
2023/03/26 09:42:52;;;;;;;7.40;2.90;;;;;;;7.88;100.00;98792.72;5059033;28;20303;-63
2023/03/26 09:45:42;;;;;;;6.53;2.80;;;;;;;7.88;100.00;98784.22;5065916;28;20641;-61
2023/03/26 09:48:32;;;;;;;9.27;2.53;;;;;;;7.73;100.00;98774.03;5068403;28;20193;-61
2023/03/26 09:51:23;;;;;;;6.97;2.70;;;;;;;7.88;100.00;98781.66;5070847;28;20239;-66
2023/03/26 09:54:24;;;;;;;6.37;2.20;;;;;;;8.26;100.00;98785.19;5055786;28;20618;-61
2023/03/26 09:57:02;;;;;;;4.87;2.20;;;;;;;8.41;100.00;98771.38;5042800;28;20181;-62
2023/03/26 09:59:41;;;;;;;5.83;2.20;;;;;;;9.11;100.00;98764.13;5086673;28;20182;-60
2023/03/26 10:02:09;;;;;;;7.43;2.63;;;;;;;9.98;100.00;98745.94;5061195;28;20251;-60
2023/03/26 10:05:03;;;;;;;3.73;2.10;;;;;;;11.07;100.00;98738.63;5056267;28;20230;-61
2023/03/26 10:07:54;;;;;;;5.20;1.80;;;;;;;13.13;100.00;98729.53;5053783;28;20175;-60
2023/03/26 10:10:19;;;;;;;3.70;1.50;;;;;;;14.05;100.00;98728.28;5048256;28;20229;-61
2023/03/26 10:12:51;;;;;;;5.53;2.00;;;;;;;13.22;100.00;98721.78;5066484;28;20263;-61
2023/03/26 10:15:34;;;;;;;3.30;2.13;;;;;;;12.62;100.00;98714.06;5073582;28;20178;-61
2023/03/26 10:18:37;;;;;;;5.03;2.00;;;;;;;11.54;100.00;98710.06;5042354;28;20248;-62
2023/03/26 10:21:24;;;;;;;3.53;1.60;;;;;;;12.34;100.00;98706.09;5046338;28;20618;-61
2023/03/26 10:23:59;;;;;;;4.03;1.60;;;;;;;13.96;100.00;98701.50;5057695;28;20208;-65
2023/03/26 10:26:46;;;;;;;3.70;1.30;;;;;;;12.84;100.00;98696.75;5052194;28;20181;-64
2023/03/26 10:29:40;;;;;;;4.13;2.17;;;;;;;12.85;100.00;98693.19;5039920;28;20215;-63
2023/03/26 10:32:10;;;;;;;5.30;2.03;;;;;;;12.51;100.00;98696.91;5075616;28;20222;-62
2023/03/26 10:34:45;;;;;;;6.13;2.03;;;;;;;12.43;100.00;98694.97;5053339;28;20674;-62
2023/03/26 10:37:44;;;;;;;4.57;1.97;;;;;;;11.10;100.00;98692.06;5052279;28;20184;-63
2023/03/26 10:40:50;;;;;;;4.43;1.80;;;;;;;10.28;100.00;98685.47;5045066;28;20181;-62
2023/03/26 10:43:40;;;;;;;6.40;1.77;;;;;;;10.30;100.00;98688.75;5073336;28;20228;-62
2023/03/26 10:46:24;;;;;;;6.10;2.13;;;;;;;10.44;100.00;98691.16;5053475;28;20292;-61
2023/03/26 10:49:08;;;;;;;12.10;6.27;;;;;;;10.46;100.00;98688.44;5054103;28;20174;-63
2023/03/26 10:51:52;;;;;;;5.17;2.83;;;;;;;10.40;100.00;98707.72;5062328;28;20686;-60
2023/03/26 10:54:39;;;;;;;4.87;2.13;;;;;;;10.45;100.00;98712.50;5066197;28;20182;-59
2023/03/26 10:57:30;;;;;;;7.30;2.63;;;;;;;10.54;100.00;98688.66;5042869;28;20596;-60
2023/03/26 11:00:12;;;;;;;8.70;3.37;;;;;;;11.57;100.00;98684.03;5045856;28;20193;-60
2023/03/26 11:03:02;;;;;;;4.67;4.03;;;;;;;11.73;100.00;98679.28;5009450;28;20226;-60
2023/03/26 11:05:59;;;;;;;4.13;1.73;;;;;;;12.05;100.00;98672.44;5021368;28;20225;-61
2023/03/26 11:08:51;;;;;;;4.07;1.50;;;;;;;12.20;100.00;98660.81;5047955;28;20233;-63
2023/03/26 11:11:45;;;;;;;3.17;1.50;;;;;;;12.48;100.00;98650.75;5041091;28;20313;-61
2023/03/26 11:14:29;;;;;;;3.37;1.63;;;;;;;12.46;100.00;98659.56;5043758;28;20190;-61
2023/03/26 11:17:21;;;;;;;3.17;1.50;;;;;;;12.51;100.00;98667.72;5070464;28;20257;-64
2023/03/26 11:19:51;;;;;;;2.33;1.47;;;;;;;12.65;100.00;98662.22;5042523;28;20196;-61
2023/03/26 11:22:42;;;;;;;2.20;1.00;;;;;;;12.91;100.00;98672.84;5055636;28;20227;-64
2023/03/26 11:25:14;;;;;;;2.97;1.30;;;;;;;12.92;100.00;98660.75;5052119;28;20673;-62
2023/03/26 11:28:08;;;;;;;3.63;1.10;;;;;;;13.39;100.00;98665.28;5052625;28;20181;-63
2023/03/26 11:30:52;;;;;;;1.93;1.00;;;;;;;14.35;100.00;98651.41;5027809;27;20257;-61
2023/03/26 11:33:23;;;;;;;2.33;0.87;;;;;;;14.63;100.00;98641.88;5059838;28;20189;-61
2023/03/26 11:35:51;;;;;;;1.93;1.23;;;;;;;14.73;100.00;98644.44;5051215;28;20173;-61
2023/03/26 11:38:42;;;;;;;2.20;1.27;;;;;;;15.06;100.00;98628.38;5084339;28;20208;-62
2023/03/26 11:41:17;;;;;;;4.57;1.60;;;;;;;14.71;100.00;98636.03;5057233;28;20297;-61
2023/03/26 11:43:48;;;;;;;3.53;1.43;;;;;;;13.79;100.00;98648.78;5044299;28;20193;-60
2023/03/26 11:46:19;;;;;;;3.33;1.43;;;;;;;13.30;100.00;98671.25;5050920;28;20180;-62
2023/03/26 11:48:49;;;;;;;4.43;1.80;;;;;;;11.87;100.00;98662.69;5084597;28;20661;-61
2023/03/26 11:51:26;;;;;;;3.13;1.73;;;;;;;11.32;100.00;98652.56;5053054;28;20690;-61
2023/03/26 11:53:53;;;;;;;3.77;1.80;;;;;;;11.53;100.00;98650.00;5055844;28;20208;-61
2023/03/26 11:56:57;;;;;;;3.03;2.00;;;;;;;11.83;100.00;98640.69;5050769;28;20243;-60
2023/03/26 11:59:29;;;;;;;2.00;1.33;;;;;;;12.22;100.00;98646.06;5051612;28;20200;-60